Leipheim Air Base EDSD

Flugplatz Daten

Name: Leipheim Air Base

Ident: EDSD

Lat: 48,43999863

Long: 10,23560047

Platzhöhe: 1604 ft

IataCode:

City: Leipheim

Metar

2022/06/24 10:55
LIED 241055Z 34004KT 9999 SCT050 BKN060 32/19 Q1014 REDSDZ RMK OVC VIS MIN 9999 WIND THR35 35003KT WIND THR17 36003KT BLU

Taf

Gewünschte Webcam nicht vorhanden? Dann fügen Sie eine hinzu. Sie wird dann so schnell wie möglich freigeschaltet
Url: Title: